メインページ
METAR-TAF:

METAR-TAF

空港 :

ニューデリー, インド

インディラ・ガンディー国際空港

緯度: 28-34N, 経度: 077-07E, 海抜: 220m

現時点の気象観測

当レポートは16分前の01:00(UTC)に作成
無風
気温 24°C
湿度 74%
気圧 1006 hPa
視程: 2500m
煙霧

METAR: VIDP 230100Z 00000KT 2500 HZ NSC 24/19 Q1006 NOSIG

時間: 06:46 (01:16 UTC)

予報

当レポートは2時間16分前の23:00(UTC)に作成
予報は23日の 00時(UTC)から 24日の 06時(UTC)まで有効
西/南西の風 4kt
視程: 2200m
高度10000ftの雲はほとんどない
煙霧
23日の 00時(UTC)から 23日の 03時(UTC)まで一時的に
西の風 10kt、最大20ktの突風を伴う
視程: 1500m
高度3500ftの雲は散在している
高度3500ftの雲はほとんどない, 積乱雲.
高度9000ftの雲は散在している
激しい雷雨, 小雨
23日の 05時(UTC)から 23日の 07時(UTC)まで徐々に
西/北西の風 10kt
視程: 4000m
高度3500ftの雲は散在している
高度10000ftの雲は散在している
煙霧
23日の 10時(UTC)から 23日の 15時(UTC)まで一時的に
西の風 10kt、最大20ktの突風を伴う
視程: 1500m
高度3500ftの雲はほとんどない, 積乱雲.
高度9000ftの千切れ雲あり
激しい雷雨, 雨
23日の 22時(UTC)から 23日の 24時(UTC)まで徐々に
変向風 2kt
視程: 2200m
高度4000ftの雲はほとんどない
高度10000ftの雲は散在している
煙霧
24日の 04時(UTC)から 24日の 05時(UTC)まで徐々に
西/南西の風 5kt
視程: 3200m
煙霧

TAF: VIDP 222300Z 2300/2406 24004KT 2200 HZ FEW100 TEMPO 2300/2303 27010G20KT 1500 -TSRA SCT035 FEW035CB SCT090 BECMG 2305/2307 30010KT 4000 HZ SCT035 SCT100 TEMPO 2310/2315 27010G20KT 1500 TSRA FEW035CB BKN090 BECMG 2322/2324 VRB02KT 2200 HZ FEW040 SCT100 BECMG 2404/2405 25005KT 3200 HZ

4,000以上の空港の気象観測と天気予報(METAR報とTAF報)

利用可能な観測所は地図上に黄色い丸と赤い丸で示す。

丸の上にカーソルを重ねると観測所名を参照できる。

次にクリックすると気象観測と天気予報を参照できる。

マップの切り替え:黒色「×」印の緑ボタンをクリックして拡大、「-」印の緑ボタンをクリックして縮小、緑色の三角印をクリックして隣りの地図に切り替え


METAR-TAF: